createdAt,value
2016-12-22T00:00:04.771Z,68.79
2016-12-22T00:05:05.084Z,68.5
2016-12-22T00:10:04.722Z,68.59
2016-12-22T00:15:04.517Z,67.93
2016-12-22T00:20:05.132Z,67.74
2016-12-22T00:25:05.118Z,67.55
2016-12-22T00:30:05.402Z,67.46
2016-12-22T00:35:04.977Z,67.55
2016-12-22T00:40:04.879Z,67.27
2016-12-22T00:45:04.980Z,67.08
2016-12-22T00:50:04.675Z,66.8
2016-12-22T00:55:05.015Z,66.13
2016-12-22T01:00:04.886Z,65.94
2016-12-22T01:05:04.890Z,65.28
2016-12-22T01:10:04.991Z,65.19
2016-12-22T01:15:04.672Z,64.71
2016-12-22T01:20:04.576Z,64.33
2016-12-22T01:25:04.467Z,63.85
2016-12-22T01:30:04.749Z,63.85
2016-12-22T01:35:04.585Z,63.57
2016-12-22T01:40:04.832Z,63.39
2016-12-22T01:45:04.850Z,63.2
2016-12-22T01:50:05.225Z,63.2
2016-12-22T01:55:04.953Z,62.82
2016-12-22T02:00:04.694Z,62.72
2016-12-22T02:05:05.405Z,62.53
2016-12-22T02:10:05.215Z,62.34
2016-12-22T02:15:05.237Z,62.34
2016-12-22T02:20:04.693Z,61.77
2016-12-22T02:25:05.355Z,61.77
2016-12-22T02:30:04.898Z,61.68
2016-12-22T02:35:05.343Z,61.4
2016-12-22T02:40:05.231Z,61.11
2016-12-22T02:45:04.954Z,61.11
2016-12-22T02:50:04.926Z,60.83
2016-12-22T02:55:05.313Z,60.64
2016-12-22T03:00:05.825Z,60.64
2016-12-22T03:05:06.804Z,60.44
2016-12-22T03:10:04.680Z,60.06
2016-12-22T03:15:04.650Z,59.97
2016-12-22T03:20:04.413Z,59.97
2016-12-22T03:25:04.740Z,59.69
2016-12-22T03:30:05.166Z,59.59
2016-12-22T03:35:04.626Z,59.5
2016-12-22T03:40:05.200Z,59.31
2016-12-22T03:45:05.824Z,59.22
2016-12-22T03:50:05.380Z,59.03
2016-12-22T03:55:05.015Z,58.84
2016-12-22T04:00:05.095Z,58.74
2016-12-22T04:05:05.225Z,58.65
2016-12-22T04:10:05.201Z,58.45
2016-12-22T04:15:04.384Z,58.36
2016-12-22T04:20:04.846Z,58.26
2016-12-22T04:25:05.000Z,58.07
2016-12-22T04:30:04.429Z,57.98
2016-12-22T04:35:05.206Z,57.89
2016-12-22T04:40:05.328Z,57.79
2016-12-22T04:45:04.420Z,57.7
2016-12-22T04:50:05.053Z,57.6
2016-12-22T04:55:04.838Z,57.54
2016-12-22T05:00:04.779Z,57.35
2016-12-22T05:05:05.214Z,57.25
2016-12-22T05:10:05.017Z,57.16
2016-12-22T05:15:04.916Z,57.06
2016-12-22T05:20:04.792Z,56.97
2016-12-22T05:25:04.714Z,56.87
2016-12-22T05:30:04.911Z,56.78
2016-12-22T05:35:04.658Z,56.59
2016-12-22T05:40:04.700Z,56.49
2016-12-22T05:45:04.451Z,56.49
2016-12-22T05:50:05.111Z,56.3
2016-12-22T05:55:04.734Z,56.21
2016-12-22T06:00:04.764Z,56.12
2016-12-22T06:05:05.172Z,56.02
2016-12-22T06:10:05.287Z,56.02
2016-12-22T06:15:04.447Z,55.93
2016-12-22T06:20:04.689Z,55.83
2016-12-22T06:25:04.577Z,55.74
2016-12-22T06:30:05.341Z,55.64
2016-12-22T06:35:04.924Z,55.55
2016-12-22T06:40:05.131Z,55.55
2016-12-22T06:45:04.665Z,55.45
2016-12-22T06:50:04.713Z,55.45
2016-12-22T06:55:05.160Z,55.45
2016-12-22T07:00:05.388Z,55.45
2016-12-22T07:05:04.604Z,55.45
2016-12-22T07:10:04.940Z,55.26
2016-12-22T07:15:04.672Z,55.17
2016-12-22T07:20:04.790Z,54.98
2016-12-22T07:25:05.066Z,54.88
2016-12-22T07:30:04.722Z,54.79
2016-12-22T07:35:04.822Z,54.6
2016-12-22T07:40:04.856Z,54.5
2016-12-22T07:45:04.380Z,54.41
2016-12-22T07:50:05.347Z,54.32
2016-12-22T07:55:05.264Z,54.22
2016-12-22T08:00:05.268Z,54.13
2016-12-22T08:05:04.819Z,54.03
2016-12-22T08:10:04.662Z,53.94
2016-12-22T08:15:04.573Z,53.84
2016-12-22T08:20:04.757Z,53.75
2016-12-22T08:25:04.905Z,53.65
2016-12-22T08:30:04.722Z,53.56
2016-12-22T08:35:05.162Z,53.46
2016-12-22T08:40:04.605Z,53.37
2016-12-22T08:45:05.006Z,53.27
2016-12-22T08:50:04.807Z,53.18
2016-12-22T08:55:04.649Z,53.08
2016-12-22T09:00:04.643Z,52.92
2016-12-22T09:05:05.346Z,52.83
2016-12-22T09:10:04.819Z,52.64
2016-12-22T09:15:05.261Z,52.64
2016-12-22T09:22:18.619Z,52.54
2016-12-22T09:25:05.130Z,52.54
2016-12-22T09:30:04.737Z,52.45
2016-12-22T09:35:04.469Z,52.45
2016-12-22T09:40:04.350Z,52.35
2016-12-22T09:45:04.974Z,52.35
2016-12-22T09:50:05.279Z,52.26
2016-12-22T09:55:04.819Z,52.26
2016-12-22T10:00:05.102Z,52.16
2016-12-22T10:05:04.808Z,52.06
2016-12-22T10:10:05.272Z,52.06
2016-12-22T10:15:05.402Z,51.87
2016-12-22T10:20:04.997Z,51.78
2016-12-22T10:25:05.325Z,51.68
2016-12-22T10:30:05.183Z,51.59
2016-12-22T10:35:04.409Z,51.5
2016-12-22T10:40:04.736Z,51.4
2016-12-22T10:45:05.382Z,51.31
2016-12-22T10:50:05.335Z,51.21
2016-12-22T10:55:05.183Z,51.05
2016-12-22T11:00:05.256Z,51.05
2016-12-22T11:05:04.465Z,51.33
2016-12-22T11:10:04.615Z,51.33
2016-12-22T11:15:04.373Z,51.52
2016-12-22T11:20:05.324Z,52.47
2016-12-22T11:25:04.636Z,52.19
2016-12-22T11:30:05.171Z,52.37
2016-12-22T11:35:05.313Z,52.28
2016-12-22T11:40:04.759Z,52.66
2016-12-22T11:45:05.025Z,52.66
2016-12-22T11:50:05.425Z,52.76
2016-12-22T11:55:04.554Z,52.85
2016-12-22T12:00:04.732Z,53.04
2016-12-22T12:05:05.156Z,52.66
2016-12-22T12:10:05.170Z,52.56
2016-12-22T12:15:04.413Z,53.04
2016-12-22T12:20:04.754Z,52.66
2016-12-22T12:25:04.926Z,52.85
2016-12-22T12:30:04.491Z,53.23
2016-12-22T12:35:04.575Z,53.33
2016-12-22T12:40:04.843Z,53.23
2016-12-22T12:45:04.800Z,53.33
2016-12-22T12:50:04.728Z,53.42
2016-12-22T12:55:05.015Z,53.33
2016-12-22T13:00:05.053Z,53.14
2016-12-22T13:05:05.044Z,53.8
2016-12-22T13:10:04.360Z,54.08
2016-12-22T13:15:05.232Z,54.08
2016-12-22T13:20:05.214Z,54.75
2016-12-22T13:25:05.041Z,54.94
2016-12-22T13:30:05.113Z,55.79
2016-12-22T13:35:05.132Z,55.79
2016-12-22T13:40:05.230Z,55.7
2016-12-22T13:45:05.437Z,55.7
2016-12-22T13:50:04.597Z,55.98
2016-12-22T13:55:04.715Z,56.08
2016-12-22T14:00:04.652Z,56.08
2016-12-22T14:05:04.750Z,56.46
2016-12-22T14:10:04.417Z,56.65
2016-12-22T14:15:04.372Z,56.65
2016-12-22T14:20:04.571Z,56.27
2016-12-22T14:25:04.492Z,55.89
2016-12-22T14:30:04.494Z,55.7
2016-12-22T14:35:05.267Z,55.6
2016-12-22T14:40:05.239Z,55.7
2016-12-22T14:45:04.415Z,55.79
2016-12-22T14:50:04.579Z,55.79
2016-12-22T14:55:05.031Z,55.6
2016-12-22T15:00:04.542Z,55.79
2016-12-22T15:05:04.929Z,55.89
2016-12-22T15:10:04.503Z,55.98
2016-12-22T15:15:04.742Z,55.79
2016-12-22T15:20:05.208Z,55.79
2016-12-22T15:25:04.871Z,55.79
2016-12-22T15:30:05.128Z,55.79
2016-12-22T15:35:04.946Z,55.6
2016-12-22T15:40:04.830Z,55.51
2016-12-22T15:45:05.094Z,55.41
2016-12-22T15:50:04.523Z,55.41
2016-12-22T15:55:05.178Z,55.51
2016-12-22T16:00:04.509Z,55.6
2016-12-22T16:05:04.608Z,55.51
2016-12-22T16:10:04.775Z,55.51
2016-12-22T16:15:04.674Z,55.6
2016-12-22T16:20:04.802Z,55.7
2016-12-22T16:25:04.649Z,55.6
2016-12-22T16:30:05.010Z,55.51
2016-12-22T16:35:04.970Z,55.6
2016-12-22T16:40:05.040Z,55.89
2016-12-22T16:45:04.326Z,55.98
2016-12-22T16:50:05.028Z,56.08
2016-12-22T16:55:04.472Z,56.08
2016-12-22T17:00:05.002Z,56.17
2016-12-22T17:05:04.564Z,56.46
2016-12-22T17:10:04.895Z,56.65
2016-12-22T17:15:05.146Z,56.93
2016-12-22T17:20:04.438Z,57.03
2016-12-22T17:25:04.781Z,57.03
2016-12-22T17:30:04.606Z,57.21
2016-12-22T17:35:04.682Z,57.4
2016-12-22T17:40:04.471Z,57.59
2016-12-22T17:45:04.819Z,57.88
2016-12-22T17:50:04.591Z,58.17
2016-12-22T17:55:05.343Z,59.11
2016-12-22T18:00:05.170Z,59.3
2016-12-22T18:05:04.543Z,59.68
2016-12-22T18:10:04.439Z,59.97
2016-12-22T18:15:04.392Z,59.97
2016-12-22T18:20:05.218Z,59.97
2016-12-22T18:25:04.754Z,60.06
2016-12-22T18:30:04.892Z,59.78
2016-12-22T18:35:05.222Z,60.25
2016-12-22T18:40:04.810Z,60.82
2016-12-22T18:45:05.046Z,60.63
2016-12-22T18:50:05.223Z,60.35
2016-12-22T18:55:05.281Z,59.88
2016-12-22T19:00:04.692Z,59.78
2016-12-22T19:05:04.750Z,60.06
2016-12-22T19:10:04.744Z,60.44
2016-12-22T19:15:05.396Z,60.73
2016-12-22T19:20:04.498Z,60.63
2016-12-22T19:25:04.837Z,60.35
2016-12-22T19:30:04.844Z,60.06
2016-12-22T19:35:04.670Z,59.3
2016-12-22T19:40:04.988Z,59.02
2016-12-22T19:45:04.859Z,58.26
2016-12-22T19:50:05.049Z,58.45
2016-12-22T19:55:05.117Z,58.45
2016-12-22T20:00:05.399Z,58.54
2016-12-22T20:05:05.239Z,58.64
2016-12-22T20:10:05.248Z,58.73
2016-12-22T20:15:05.420Z,58.83
2016-12-22T20:20:04.577Z,59.11
2016-12-22T20:25:05.068Z,59.21
2016-12-22T20:30:05.039Z,59.49
2016-12-22T20:35:04.894Z,59.68
2016-12-22T20:40:04.679Z,59.68
2016-12-22T20:45:04.874Z,59.78
2016-12-22T20:50:04.575Z,59.78
2016-12-22T20:55:04.477Z,59.68
2016-12-22T21:00:04.385Z,59.4
2016-12-22T21:05:04.849Z,59.4
2016-12-22T21:10:04.784Z,59.68
2016-12-22T21:15:04.604Z,59.78
2016-12-22T21:20:04.539Z,59.78
2016-12-22T21:25:05.370Z,59.68
2016-12-22T21:30:05.067Z,59.78
2016-12-22T21:35:05.090Z,59.78
2016-12-22T21:40:04.625Z,59.68
2016-12-22T21:45:04.975Z,59.49
2016-12-22T21:50:04.713Z,60.06
2016-12-22T21:55:05.304Z,60.63
2016-12-22T22:00:04.752Z,61.11
2016-12-22T22:05:04.969Z,62.24
2016-12-22T22:10:04.728Z,62.43
2016-12-22T22:15:04.997Z,62.82
2016-12-22T22:20:05.335Z,63.1
2016-12-22T22:25:04.783Z,62.62
2016-12-22T22:30:04.608Z,62.43
2016-12-22T22:35:05.345Z,62.15
2016-12-22T22:40:04.204Z,62.15
2016-12-22T22:45:05.126Z,62.34
2016-12-22T22:50:05.412Z,63.29
2016-12-22T22:55:04.962Z,63.39
2016-12-22T23:00:05.298Z,64.43
2016-12-22T23:05:05.487Z,64.33
2016-12-22T23:10:04.987Z,65.09
2016-12-22T23:15:04.917Z,64.62
2016-12-22T23:20:04.649Z,64.33
2016-12-22T23:25:05.006Z,64.62
2016-12-22T23:30:04.851Z,64.71
2016-12-22T23:35:05.107Z,65.28
2016-12-22T23:40:04.428Z,65.28
2016-12-22T23:45:04.464Z,65.85
2016-12-22T23:50:04.893Z,65.95
2016-12-22T23:55:05.391Z,66.33
